Time;durP1;ratioP1;P1;durP2;ratioP2;P2;SDS_P1;SDS_P2;PMS_P1;PMS_P2;Temp;Humidity;BMP_temperature;BMP_pressure;BME280_temperature;BME280_humidity;BME280_pressure;Samples;Min_cycle;Max_cycle;Signal;HPM_P1;HPM_P2
2021/01/06 00:00:56;;;;;;;24.17;16.80;;;2.90;99.90;;;;;;4928406;29;20966;-69
2021/01/06 00:03:23;;;;;;;31.10;18.40;;;2.80;99.90;;;;;;4930305;29;20185;-69
2021/01/06 00:06:08;;;;;;;20.93;16.13;;;2.80;99.90;;;;;;4930292;29;20458;-69
2021/01/06 00:08:34;;;;;;;26.70;17.43;;;2.90;99.90;;;;;;4929785;29;20425;-69
2021/01/06 00:11:00;;;;;;;27.93;18.40;;;2.90;99.90;;;;;;4929999;29;20456;-69
2021/01/06 00:13:26;;;;;;;27.63;16.87;;;2.90;99.90;;;;;;4929751;29;20458;-69
2021/01/06 00:15:52;;;;;;;29.90;18.70;;;2.90;99.90;;;;;;4930261;29;20433;-69
2021/01/06 00:18:19;;;;;;;24.67;18.47;;;3.00;99.90;;;;;;4927621;29;20216;-69
2021/01/06 00:20:44;;;;;;;22.17;16.67;;;2.90;99.90;;;;;;4929969;29;20507;-69
2021/01/06 00:23:11;;;;;;;31.27;17.20;;;3.00;99.90;;;;;;4929868;29;20445;-69
2021/01/06 00:25:41;;;;;;;30.17;18.73;;;2.90;99.90;;;;;;4930166;29;20528;-69
2021/01/06 00:28:09;;;;;;;23.53;16.33;;;2.90;99.90;;;;;;4929092;29;20833;-69
2021/01/06 00:30:37;;;;;;;26.60;18.13;;;2.90;99.90;;;;;;4929855;29;20912;-69
2021/01/06 00:33:06;;;;;;;32.07;18.43;;;2.80;99.90;;;;;;4930074;29;20431;-69
2021/01/06 00:35:32;;;;;;;25.50;17.77;;;2.80;99.90;;;;;;4930362;29;20421;-69
2021/01/06 00:37:58;;;;;;;28.80;17.23;;;2.80;99.90;;;;;;4929425;29;21010;-69
2021/01/06 00:40:29;;;;;;;29.50;17.67;;;2.80;99.90;;;;;;4929760;29;20895;-69
2021/01/06 00:42:59;;;;;;;30.60;19.40;;;2.80;99.90;;;;;;4931333;29;20174;-69
2021/01/06 00:45:26;;;;;;;28.87;16.40;;;2.80;99.90;;;;;;4933437;29;20445;-69
2021/01/06 00:47:52;;;;;;;29.47;18.73;;;2.80;99.90;;;;;;4932851;29;20429;-69
2021/01/06 00:50:20;;;;;;;24.33;16.30;;;2.80;99.90;;;;;;4933169;29;20453;-69
2021/01/06 00:52:46;;;;;;;23.37;17.07;;;2.80;99.90;;;;;;4933573;29;20429;-69
2021/01/06 00:55:12;;;;;;;26.30;17.13;;;2.80;99.90;;;;;;4933548;29;20508;-69
2021/01/06 00:57:38;;;;;;;26.83;16.83;;;2.80;99.90;;;;;;4932728;29;20192;-69
2021/01/06 01:00:15;;;;;;;25.30;17.73;;;2.70;99.90;;;;;;4931401;29;20432;-69
2021/01/06 01:02:45;;;;;;;24.00;15.10;;;2.70;99.90;;;;;;4933384;29;20427;-69
2021/01/06 01:05:12;;;;;;;22.53;15.07;;;2.80;99.90;;;;;;4933541;29;20421;-69
2021/01/06 01:07:37;;;;;;;21.90;16.47;;;2.80;99.90;;;;;;4932840;29;20516;-69
2021/01/06 01:10:04;;;;;;;22.00;15.20;;;2.70;99.90;;;;;;4933012;29;20439;-69
2021/01/06 01:12:29;;;;;;;21.30;15.23;;;2.70;99.90;;;;;;4933156;29;20545;-69
2021/01/06 01:14:55;;;;;;;21.20;16.20;;;2.70;99.90;;;;;;4933220;29;20417;-69
2021/01/06 01:17:20;;;;;;;23.13;15.93;;;2.70;99.90;;;;;;4933121;29;20212;-68
2021/01/06 01:19:47;;;;;;;21.40;15.43;;;2.60;99.90;;;;;;4932174;29;20212;-69
2021/01/06 01:22:12;;;;;;;22.53;15.40;;;2.60;99.90;;;;;;4933275;29;20177;-69
2021/01/06 01:24:38;;;;;;;24.07;16.20;;;2.50;99.90;;;;;;4933291;29;20927;-69
2021/01/06 01:27:04;;;;;;;20.60;16.53;;;2.50;99.90;;;;;;4933711;29;20209;-69
2021/01/06 01:29:30;;;;;;;18.83;14.60;;;2.50;99.90;;;;;;4932135;29;20223;-69
2021/01/06 01:31:55;;;;;;;19.70;15.40;;;2.50;99.90;;;;;;4933145;29;20181;-69
2021/01/06 01:34:21;;;;;;;25.73;15.77;;;2.50;99.90;;;;;;4932854;29;20492;-69
2021/01/06 01:36:50;;;;;;;19.27;14.23;;;2.40;99.90;;;;;;4933179;29;20622;-69
2021/01/06 01:39:17;;;;;;;19.17;14.60;;;2.50;99.90;;;;;;4931969;29;20219;-69
2021/01/06 01:41:43;;;;;;;21.30;15.47;;;2.50;99.90;;;;;;4932616;29;20433;-69
2021/01/06 01:44:12;;;;;;;20.90;14.63;;;2.50;99.90;;;;;;4932826;29;20426;-69
2021/01/06 01:47:02;;;;;;;22.03;16.00;;;2.50;99.90;;;;;;4932543;29;20173;-69
2021/01/06 01:49:34;;;;;;;20.57;14.20;;;2.50;99.90;;;;;;4931709;29;20472;-69
2021/01/06 01:52:06;;;;;;;25.27;14.90;;;2.50;99.90;;;;;;4932485;29;20496;-68
2021/01/06 01:54:33;;;;;;;22.07;14.50;;;2.50;99.90;;;;;;4932675;29;20514;-69
2021/01/06 01:57:12;;;;;;;20.87;14.53;;;2.50;99.90;;;;;;4932643;29;20421;-69
2021/01/06 01:59:45;;;;;;;21.30;14.77;;;2.50;99.90;;;;;;4931758;29;20477;-68
2021/01/06 02:02:36;;;;;;;18.37;13.73;;;2.50;99.90;;;;;;4932070;29;20429;-69
2021/01/06 02:05:12;;;;;;;20.80;14.60;;;2.60;99.90;;;;;;4932321;29;20524;-69
2021/01/06 02:07:46;;;;;;;21.50;14.90;;;2.60;99.90;;;;;;4931778;29;21167;-69
2021/01/06 02:10:23;;;;;;;18.77;13.83;;;2.50;99.90;;;;;;4932143;29;20469;-68
2021/01/06 02:12:54;;;;;;;20.87;16.67;;;2.50;99.90;;;;;;4932043;29;20429;-68
2021/01/06 02:15:34;;;;;;;20.80;14.30;;;2.50;99.90;;;;;;4932437;29;20451;-69
2021/01/06 02:18:00;;;;;;;19.73;13.87;;;2.60;99.90;;;;;;4931640;29;20465;-68
2021/01/06 02:20:26;;;;;;;17.73;14.60;;;2.60;99.90;;;;;;4932183;29;20999;-69
2021/01/06 02:22:53;;;;;;;16.03;12.63;;;2.50;99.90;;;;;;4932131;29;20182;-69
2021/01/06 02:25:21;;;;;;;18.47;14.40;;;2.60;99.90;;;;;;4931824;29;20452;-69
2021/01/06 02:27:48;;;;;;;16.80;13.53;;;2.50;99.90;;;;;;4931315;29;21007;-69
2021/01/06 02:30:15;;;;;;;18.77;13.70;;;2.50;99.90;;;;;;4931456;29;20473;-69
2021/01/06 02:32:42;;;;;;;17.90;13.60;;;2.50;99.90;;;;;;4931718;29;20425;-69
2021/01/06 02:35:09;;;;;;;17.40;14.00;;;2.50;99.90;;;;;;4931520;29;20433;-69
2021/01/06 02:37:35;;;;;;;16.33;13.20;;;2.40;99.90;;;;;;4931235;29;20425;-69
2021/01/06 02:40:01;;;;;;;18.60;13.40;;;2.40;99.90;;;;;;4931062;29;20484;-69
2021/01/06 02:42:27;;;;;;;19.40;14.07;;;2.30;99.90;;;;;;4931697;29;20776;-69
2021/01/06 02:44:53;;;;;;;19.00;14.63;;;2.30;99.90;;;;;;4931776;29;20431;-69
2021/01/06 02:47:19;;;;;;;19.73;14.43;;;2.40;99.90;;;;;;4931468;29;20185;-69
2021/01/06 02:49:45;;;;;;;20.67;14.00;;;2.40;99.90;;;;;;4930762;29;20205;-68
2021/01/06 02:52:28;;;;;;;17.30;13.20;;;2.50;99.90;;;;;;4931199;29;20516;-69
2021/01/06 02:54:54;;;;;;;20.10;15.70;;;2.40;99.90;;;;;;4930231;29;20856;-68
2021/01/06 02:57:22;;;;;;;20.33;13.97;;;2.40;99.90;;;;;;4931252;29;20532;-69
2021/01/06 02:59:48;;;;;;;20.90;12.23;;;2.40;99.90;;;;;;4928866;29;21077;-69
2021/01/06 03:02:24;;;;;;;20.00;13.90;;;2.40;99.90;;;;;;4931097;29;20425;-68
2021/01/06 03:05:16;;;;;;;21.27;14.93;;;2.40;99.90;;;;;;4931541;29;20930;-69
2021/01/06 03:07:42;;;;;;;13.60;11.40;;;2.50;99.90;;;;;;4926801;29;21049;-69
2021/01/06 03:10:15;;;;;;;18.53;14.40;;;2.50;99.90;;;;;;4931565;29;20508;-69
2021/01/06 03:12:41;;;;;;;14.70;11.60;;;2.50;99.90;;;;;;4931514;29;20480;-68
2021/01/06 03:15:07;;;;;;;18.63;12.60;;;2.40;99.90;;;;;;4929550;29;20426;-69
2021/01/06 03:17:32;;;;;;;15.60;12.53;;;2.40;99.90;;;;;;4930756;29;20508;-69
2021/01/06 03:20:05;;;;;;;15.30;12.90;;;2.40;99.90;;;;;;4929987;29;21052;-69
2021/01/06 03:22:32;;;;;;;17.23;13.73;;;2.30;99.90;;;;;;4931096;29;20178;-69
2021/01/06 03:25:08;;;;;;;14.20;11.30;;;2.30;99.90;;;;;;4930621;29;20805;-69
2021/01/06 03:27:35;;;;;;;18.60;12.17;;;2.30;99.90;;;;;;4930800;29;20421;-68
2021/01/06 03:30:02;;;;;;;17.07;11.43;;;2.30;99.90;;;;;;4930331;29;20563;-69
2021/01/06 03:33:29;;;;;;;17.03;12.33;;;2.40;99.90;;;;;;4930881;29;20460;-69
2021/01/06 03:35:59;;;;;;;11.87;9.80;;;2.40;99.90;;;;;;4867533;29;20443;-68
2021/01/06 03:38:37;;;;;;;14.73;10.90;;;2.40;99.90;;;;;;4870610;29;20479;-69
2021/01/06 03:41:05;;;;;;;13.47;9.60;;;2.40;99.90;;;;;;4905127;29;20457;-69
2021/01/06 03:43:33;;;;;;;13.23;10.60;;;2.30;99.90;;;;;;4930665;29;21045;-69
2021/01/06 03:46:13;;;;;;;14.37;11.40;;;2.20;99.90;;;;;;4930553;29;20516;-69
2021/01/06 03:49:01;;;;;;;11.13;9.67;;;2.30;99.90;;;;;;4930004;29;20437;-68
2021/01/06 03:51:39;;;;;;;13.87;8.77;;;2.30;99.90;;;;;;4931011;29;20554;-69
2021/01/06 03:54:27;;;;;;;15.67;9.73;;;2.30;99.90;;;;;;4931043;29;20942;-68
2021/01/06 03:56:56;;;;;;;11.83;9.13;;;2.20;99.90;;;;;;4930767;29;20421;-68
2021/01/06 03:59:29;;;;;;;11.57;9.40;;;2.20;99.90;;;;;;4929550;28;20842;-69
2021/01/06 04:02:17;;;;;;;12.50;9.80;;;2.20;99.90;;;;;;4928626;29;20484;-69
2021/01/06 04:04:47;;;;;;;9.77;8.43;;;2.20;99.90;;;;;;4929881;29;20520;-68
2021/01/06 04:07:21;;;;;;;11.77;10.10;;;2.20;99.90;;;;;;4930244;29;20429;-69
2021/01/06 04:09:54;;;;;;;11.70;9.70;;;2.20;99.90;;;;;;4929242;29;20448;-68
2021/01/06 04:12:20;;;;;;;12.40;10.37;;;2.20;99.90;;;;;;4930493;29;20433;-69
2021/01/06 04:14:47;;;;;;;13.83;10.80;;;2.10;99.90;;;;;;4930364;29;20425;-68
2021/01/06 04:17:21;;;;;;;14.07;9.73;;;2.10;99.90;;;;;;4929538;29;20188;-69
2021/01/06 04:19:52;;;;;;;13.60;11.40;;;2.10;99.90;;;;;;4929092;29;20468;-68
2021/01/06 04:22:36;;;;;;;12.23;10.10;;;2.10;99.90;;;;;;4930360;29;20488;-69
2021/01/06 04:25:02;;;;;;;14.30;10.07;;;2.10;99.90;;;;;;4928577;29;20433;-69
2021/01/06 04:27:27;;;;;;;14.30;11.10;;;2.10;99.90;;;;;;4930245;29;20471;-68
2021/01/06 04:29:53;;;;;;;15.70;11.77;;;2.20;99.90;;;;;;4929117;29;20477;-69
2021/01/06 04:32:18;;;;;;;12.30;10.07;;;2.20;99.90;;;;;;4929892;29;20585;-68
2021/01/06 04:34:44;;;;;;;14.03;11.13;;;2.10;99.90;;;;;;4930315;29;20736;-69
2021/01/06 04:37:10;;;;;;;17.40;11.97;;;2.10;99.90;;;;;;4930040;29;20185;-69
2021/01/06 04:39:35;;;;;;;14.93;11.70;;;2.10;99.90;;;;;;4929431;29;20236;-68
2021/01/06 04:42:05;;;;;;;15.33;10.50;;;2.10;99.90;;;;;;4930544;29;20193;-68
2021/01/06 04:44:58;;;;;;;14.87;11.70;;;2.10;99.90;;;;;;4930454;29;20260;-68
2021/01/06 04:47:39;;;;;;;15.60;11.80;;;2.10;99.90;;;;;;4930023;29;20978;-69
2021/01/06 04:50:20;;;;;;;17.93;11.70;;;2.10;99.90;;;;;;4929687;29;20453;-69
2021/01/06 04:53:01;;;;;;;14.87;11.00;;;2.10;99.90;;;;;;4929892;29;20524;-69
2021/01/06 04:55:54;;;;;;;18.70;11.20;;;2.20;99.90;;;;;;4929897;29;20426;-68
2021/01/06 04:58:38;;;;;;;15.83;11.30;;;2.10;99.90;;;;;;4928765;29;20463;-69
2021/01/06 05:01:43;;;;;;;15.63;11.20;;;2.10;99.90;;;;;;4929710;29;20441;-68
2021/01/06 05:04:26;;;;;;;15.97;11.00;;;2.10;99.90;;;;;;4929350;29;20480;-69
2021/01/06 05:07:29;;;;;;;17.37;12.07;;;2.00;99.90;;;;;;4930035;29;20432;-69
2021/01/06 05:10:19;;;;;;;14.63;11.13;;;2.00;99.90;;;;;;4928636;29;21050;-69
2021/01/06 05:12:48;;;;;;;19.03;12.43;;;2.00;99.90;;;;;;4929782;29;20429;-69
2021/01/06 05:15:43;;;;;;;17.27;11.77;;;1.90;99.90;;;;;;4929495;29;20941;-69
2021/01/06 05:18:10;;;;;;;18.93;13.13;;;1.90;99.90;;;;;;4924124;29;20476;-69
2021/01/06 05:20:36;;;;;;;15.53;12.07;;;2.10;99.90;;;;;;4929471;29;20452;-68
2021/01/06 05:23:02;;;;;;;16.90;11.80;;;2.10;99.90;;;;;;4929928;29;20430;-68
2021/01/06 05:25:29;;;;;;;17.13;12.17;;;2.10;99.90;;;;;;4929593;29;20429;-69
2021/01/06 05:27:56;;;;;;;21.57;11.73;;;2.20;99.90;;;;;;4929420;29;20437;-69
2021/01/06 05:30:28;;;;;;;15.20;12.50;;;2.10;99.90;;;;;;4972741;23;20537;-66
2021/01/06 05:32:59;;;;;;;17.60;11.90;;;2.20;99.90;;;;;;4971893;28;20424;-66
2021/01/06 05:35:29;;;;;;;20.03;12.80;;;2.10;99.90;;;;;;4971507;28;20417;-66
2021/01/06 05:37:58;;;;;;;16.00;12.93;;;2.20;99.90;;;;;;4970301;28;20407;-66
2021/01/06 05:40:25;;;;;;;18.00;12.10;;;2.10;99.90;;;;;;4971134;28;20475;-66
2021/01/06 05:42:53;;;;;;;14.20;11.53;;;2.10;99.90;;;;;;4970816;28;20436;-66
2021/01/06 05:45:28;;;;;;;15.23;11.83;;;2.10;99.90;;;;;;4971252;28;20426;-66
2021/01/06 05:48:01;;;;;;;15.37;12.23;;;2.20;99.90;;;;;;4970300;28;20438;-66
2021/01/06 05:50:35;;;;;;;14.13;11.60;;;2.20;99.90;;;;;;4970981;28;20451;-66
2021/01/06 05:53:05;;;;;;;14.53;11.40;;;2.20;99.90;;;;;;4970866;28;20462;-68
2021/01/06 05:55:36;;;;;;;15.20;11.20;;;2.10;99.90;;;;;;4971027;28;20925;-68
2021/01/06 05:58:17;;;;;;;17.07;12.30;;;2.00;99.90;;;;;;4970043;28;20822;-68
2021/01/06 06:01:07;;;;;;;17.10;12.10;;;2.00;99.90;;;;;;4971091;28;20884;-68
2021/01/06 06:04:02;;;;;;;16.40;11.97;;;2.00;99.90;;;;;;4970790;28;20778;-66
2021/01/06 06:06:36;;;;;;;14.13;11.80;;;2.00;99.90;;;;;;4970945;28;20419;-66
2021/01/06 06:09:37;;;;;;;16.13;11.83;;;2.00;99.90;;;;;;4970023;28;20415;-66
2021/01/06 06:12:17;;;;;;;18.33;13.17;;;2.00;99.90;;;;;;4970629;28;20424;-66
2021/01/06 06:15:13;;;;;;;16.73;12.60;;;1.90;99.90;;;;;;4970398;28;20427;-66
2021/01/06 06:18:07;;;;;;;14.30;11.20;;;1.90;99.90;;;;;;4970385;28;20588;-66
2021/01/06 06:20:40;;;;;;;13.50;10.67;;;1.90;99.90;;;;;;4970386;28;20518;-66
2021/01/06 06:23:33;;;;;;;15.07;11.90;;;1.90;99.90;;;;;;4970578;28;20412;-66
2021/01/06 06:26:08;;;;;;;15.47;11.33;;;1.90;99.90;;;;;;4970233;28;20807;-66
2021/01/06 06:28:40;;;;;;;19.63;12.60;;;1.90;99.90;;;;;;4969621;28;21021;-66
2021/01/06 06:31:26;;;;;;;18.50;13.50;;;1.90;99.90;;;;;;4970123;28;20992;-66
2021/01/06 06:33:54;;;;;;;18.20;10.63;;;1.90;99.90;;;;;;4970265;28;20518;-66
2021/01/06 06:36:22;;;;;;;14.27;11.50;;;1.90;99.90;;;;;;4970237;28;20482;-66
2021/01/06 06:38:49;;;;;;;18.80;13.60;;;1.90;99.90;;;;;;4969185;28;20496;-66
2021/01/06 06:41:21;;;;;;;13.37;11.07;;;1.80;99.90;;;;;;4969416;28;20447;-66
2021/01/06 06:43:52;;;;;;;16.83;12.67;;;1.80;99.90;;;;;;4969933;28;20416;-66
2021/01/06 06:46:44;;;;;;;15.70;11.37;;;1.70;99.90;;;;;;4970185;28;20798;-66
2021/01/06 06:49:20;;;;;;;15.93;12.30;;;1.70;99.90;;;;;;4969382;28;20518;-67
2021/01/06 06:52:00;;;;;;;14.83;11.90;;;1.80;99.90;;;;;;4970309;28;20985;-67
2021/01/06 06:54:37;;;;;;;14.90;12.10;;;1.80;99.90;;;;;;4969795;28;20431;-67
2021/01/06 06:57:12;;;;;;;13.00;10.27;;;1.80;99.90;;;;;;4970024;28;20415;-67
2021/01/06 06:59:59;;;;;;;13.60;11.47;;;1.80;99.90;;;;;;4968773;28;20455;-67
2021/01/06 07:02:25;;;;;;;16.20;11.10;;;1.80;99.90;;;;;;4970005;28;20423;-67
2021/01/06 07:04:54;;;;;;;15.50;13.30;;;1.80;99.90;;;;;;4969612;28;20435;-67
2021/01/06 07:07:38;;;;;;;13.40;12.00;;;1.80;99.90;;;;;;4969851;28;20175;-67
2021/01/06 07:10:18;;;;;;;13.63;11.63;;;1.80;99.90;;;;;;4969056;28;20559;-67
2021/01/06 07:12:43;;;;;;;13.83;11.30;;;1.80;99.90;;;;;;4969769;28;20462;-67
2021/01/06 07:15:39;;;;;;;14.80;10.63;;;1.80;99.90;;;;;;4969488;28;20432;-67
2021/01/06 07:18:31;;;;;;;16.13;12.43;;;1.80;99.90;;;;;;4968556;28;20622;-67
2021/01/06 07:21:05;;;;;;;13.93;10.20;;;1.90;99.90;;;;;;4969170;28;20953;-67
2021/01/06 07:23:33;;;;;;;12.03;10.67;;;1.90;99.90;;;;;;4969482;28;20420;-67
2021/01/06 07:26:04;;;;;;;14.23;10.70;;;1.80;99.90;;;;;;4969273;28;21110;-67
2021/01/06 07:28:30;;;;;;;17.10;11.00;;;1.80;99.90;;;;;;4968395;28;20787;-67
2021/01/06 07:31:08;;;;;;;19.53;10.73;;;1.80;99.90;;;;;;4967717;28;20465;-67
2021/01/06 07:33:36;;;;;;;17.97;12.20;;;1.90;99.90;;;;;;4969051;28;20227;-67
2021/01/06 07:36:18;;;;;;;13.70;10.47;;;1.90;99.90;;;;;;4969200;28;20435;-67
2021/01/06 07:38:46;;;;;;;13.87;10.63;;;1.90;99.90;;;;;;4968211;28;20459;-67
2021/01/06 07:41:12;;;;;;;14.10;9.93;;;2.00;99.90;;;;;;4969083;28;20878;-67
2021/01/06 07:43:44;;;;;;;12.83;11.47;;;1.90;99.90;;;;;;4969000;28;20428;-67
2021/01/06 07:46:19;;;;;;;14.00;10.60;;;1.90;99.90;;;;;;4969172;28;20419;-67
2021/01/06 07:49:10;;;;;;;14.43;11.03;;;2.00;99.90;;;;;;4968421;28;20435;-67
2021/01/06 07:51:57;;;;;;;13.63;10.60;;;2.00;99.90;;;;;;4969449;28;20521;-67
2021/01/06 07:54:33;;;;;;;12.07;10.70;;;2.00;99.90;;;;;;4969012;28;21019;-67
2021/01/06 07:57:05;;;;;;;13.10;9.90;;;2.10;99.90;;;;;;4968904;28;20457;-67
2021/01/06 07:59:46;;;;;;;13.57;11.33;;;2.10;99.90;;;;;;4967802;28;20463;-67
2021/01/06 08:02:17;;;;;;;14.27;10.50;;;2.10;99.90;;;;;;4968593;28;20933;-67
2021/01/06 08:05:12;;;;;;;13.80;10.50;;;2.20;99.90;;;;;;4967924;28;20478;-67
2021/01/06 08:07:38;;;;;;;13.57;10.77;;;2.20;99.90;;;;;;4968326;28;20796;-67
2021/01/06 08:10:25;;;;;;;13.53;10.17;;;2.20;99.90;;;;;;4968375;28;20447;-67
2021/01/06 08:12:51;;;;;;;13.80;10.37;;;2.30;99.90;;;;;;4968804;28;20200;-67
2021/01/06 08:15:24;;;;;;;16.33;10.33;;;2.30;99.90;;;;;;4968861;28;20462;-67
2021/01/06 08:17:49;;;;;;;15.73;11.47;;;2.20;99.90;;;;;;4967758;28;20819;-67
2021/01/06 08:20:52;;;;;;;10.00;9.00;;;2.30;99.90;;;;;;4968465;28;20450;-67
2021/01/06 08:23:32;;;;;;;11.47;9.97;;;2.20;99.90;;;;;;4966638;28;20262;-67
2021/01/06 08:26:23;;;;;;;13.67;11.00;;;2.30;99.90;;;;;;4968797;28;20435;-67
2021/01/06 08:28:49;;;;;;;15.57;10.70;;;2.20;99.90;;;;;;4967725;28;20482;-67
2021/01/06 08:31:20;;;;;;;13.90;10.60;;;2.20;99.90;;;;;;4968491;28;20553;-67
2021/01/06 08:34:06;;;;;;;13.13;10.67;;;2.20;99.90;;;;;;4968491;28;20180;-67
2021/01/06 08:36:37;;;;;;;15.60;12.57;;;2.20;99.90;;;;;;4968859;28;21480;-67
2021/01/06 08:39:16;;;;;;;12.27;10.97;;;2.20;99.90;;;;;;4967737;28;20849;-67
2021/01/06 08:41:44;;;;;;;15.27;11.13;;;2.20;99.90;;;;;;4968610;28;20478;-67
2021/01/06 08:44:35;;;;;;;12.77;10.37;;;2.20;99.90;;;;;;4968265;28;20451;-67
2021/01/06 08:47:05;;;;;;;13.83;10.10;;;2.20;99.90;;;;;;4965681;28;20436;-67
2021/01/06 08:49:45;;;;;;;14.40;11.97;;;2.20;99.90;;;;;;4967537;28;20511;-67
2021/01/06 08:52:16;;;;;;;11.90;9.50;;;2.30;99.90;;;;;;4968385;28;20427;-67
2021/01/06 08:54:44;;;;;;;18.13;10.40;;;2.20;99.90;;;;;;4968292;28;20470;-67
2021/01/06 08:57:21;;;;;;;10.43;9.33;;;2.30;99.90;;;;;;4968331;28;20424;-67
2021/01/06 08:59:47;;;;;;;11.90;9.63;;;2.30;99.90;;;;;;4966177;28;21059;-67
2021/01/06 09:02:35;;;;;;;11.60;10.33;;;2.30;99.90;;;;;;4966704;28;20450;-67
2021/01/06 09:05:00;;;;;;;13.87;11.13;;;2.40;99.90;;;;;;4971070;28;20646;-67
2021/01/06 09:07:30;;;;;;;12.37;10.63;;;2.30;99.90;;;;;;4971497;28;20423;-67
2021/01/06 09:10:29;;;;;;;13.10;11.00;;;2.20;99.90;;;;;;4971171;28;20200;-67
2021/01/06 09:12:58;;;;;;;10.80;9.63;;;2.30;99.90;;;;;;4971752;28;20455;-67
2021/01/06 09:15:47;;;;;;;12.30;11.07;;;2.20;99.90;;;;;;4972048;28;20803;-67
2021/01/06 09:18:26;;;;;;;10.80;9.70;;;2.20;99.90;;;;;;4970702;28;20486;-67
2021/01/06 09:21:03;;;;;;;10.13;8.30;;;2.20;99.90;;;;;;4971721;28;20438;-67
2021/01/06 09:23:30;;;;;;;12.13;9.53;;;2.20;99.90;;;;;;4971761;28;20426;-67
2021/01/06 09:25:58;;;;;;;12.40;9.03;;;2.40;99.90;;;;;;4971838;28;20426;-67
2021/01/06 09:28:25;;;;;;;13.50;9.40;;;2.30;99.90;;;;;;4970611;28;20470;-67
2021/01/06 09:30:51;;;;;;;9.90;8.80;;;2.30;99.90;;;;;;4971238;28;20467;-67
2021/01/06 09:33:25;;;;;;;11.00;9.30;;;2.30;99.90;;;;;;4971082;28;20482;-67
2021/01/06 09:35:51;;;;;;;9.97;8.57;;;2.30;99.90;;;;;;4971534;28;20426;-67
2021/01/06 09:38:34;;;;;;;10.03;8.93;;;2.40;99.90;;;;;;4970194;28;20964;-67
2021/01/06 09:41:04;;;;;;;10.80;9.17;;;2.40;99.90;;;;;;4971468;28;20440;-67
2021/01/06 09:43:37;;;;;;;13.67;10.30;;;2.40;99.90;;;;;;4971592;28;20988;-67
2021/01/06 09:46:20;;;;;;;16.00;11.27;;;2.40;99.90;;;;;;4970953;28;20422;-67
2021/01/06 09:48:54;;;;;;;12.33;9.53;;;2.40;99.90;;;;;;4970455;28;20963;-67
2021/01/06 09:51:21;;;;;;;11.93;10.17;;;2.40;99.90;;;;;;4970467;28;21006;-67
2021/01/06 09:53:54;;;;;;;11.17;9.97;;;2.50;99.90;;;;;;4971053;28;20427;-67
2021/01/06 09:56:24;;;;;;;11.43;8.40;;;2.50;99.90;;;;;;4970842;28;20777;-67
2021/01/06 09:58:50;;;;;;;11.80;9.63;;;2.50;99.90;;;;;;4970178;28;20459;-67
2021/01/06 10:01:38;;;;;;;13.70;11.80;;;2.60;99.90;;;;;;4970688;28;20444;-67
2021/01/06 10:04:14;;;;;;;10.23;8.97;;;2.50;99.90;;;;;;4970919;28;20435;-67
2021/01/06 10:06:48;;;;;;;13.30;9.47;;;2.50;99.90;;;;;;4970731;28;20419;-67
2021/01/06 10:09:22;;;;;;;12.30;9.13;;;2.50;99.90;;;;;;4970291;28;20424;-67
2021/01/06 10:12:16;;;;;;;9.93;8.87;;;2.70;99.90;;;;;;4970565;28;20510;-67
2021/01/06 10:14:59;;;;;;;9.80;8.80;;;2.60;99.90;;;;;;4970155;28;20430;-67
2021/01/06 10:17:33;;;;;;;10.50;9.40;;;2.70;99.90;;;;;;4968979;28;20434;-67
2021/01/06 10:20:36;;;;;;;10.10;8.60;;;2.70;99.90;;;;;;4969935;28;20471;-67
2021/01/06 10:23:35;;;;;;;11.33;9.33;;;2.70;99.90;;;;;;4970413;28;20434;-67
2021/01/06 10:26:34;;;;;;;10.30;9.20;;;2.60;99.90;;;;;;4968828;28;20881;-66
2021/01/06 10:29:11;;;;;;;10.80;9.03;;;2.70;99.90;;;;;;4969540;28;20477;-66
2021/01/06 10:31:58;;;;;;;9.37;8.43;;;2.70;99.90;;;;;;4970361;28;20478;-67
2021/01/06 10:34:36;;;;;;;8.70;7.80;;;2.80;99.90;;;;;;4970319;28;20921;-66
2021/01/06 10:37:04;;;;;;;9.00;8.13;;;2.90;99.90;;;;;;4970385;28;20419;-66
2021/01/06 10:40:00;;;;;;;7.50;6.60;;;2.90;99.90;;;;;;4969616;28;20455;-68
2021/01/06 10:42:36;;;;;;;9.07;7.67;;;2.80;99.90;;;;;;4959022;28;20475;-66
2021/01/06 10:45:14;;;;;;;9.50;8.27;;;2.80;99.90;;;;;;4970115;28;20470;-66
2021/01/06 10:47:51;;;;;;;8.90;8.00;;;2.80;99.90;;;;;;4969410;28;20420;-66
2021/01/06 10:50:22;;;;;;;11.10;7.80;;;2.70;99.90;;;;;;4969704;28;20442;-66
2021/01/06 10:53:08;;;;;;;8.47;7.13;;;2.70;99.90;;;;;;4970021;28;20505;-66
2021/01/06 10:56:06;;;;;;;12.90;10.13;;;2.70;99.90;;;;;;4969820;28;20439;-66
2021/01/06 10:58:43;;;;;;;10.63;8.30;;;2.70;99.90;;;;;;4969286;28;20473;-66
2021/01/06 11:01:09;;;;;;;11.30;8.60;;;2.60;99.90;;;;;;4969778;28;20435;-66
2021/01/06 11:04:12;;;;;;;10.00;8.93;;;2.60;99.90;;;;;;4969890;28;20428;-66
2021/01/06 11:06:56;;;;;;;9.23;8.30;;;2.60;99.90;;;;;;4969707;28;20701;-66
2021/01/06 11:09:50;;;;;;;10.13;7.83;;;2.60;99.90;;;;;;4969057;28;20439;-66
2021/01/06 11:12:47;;;;;;;14.23;12.10;;;2.60;99.90;;;;;;4969466;28;20463;-66
2021/01/06 11:15:44;;;;;;;12.60;9.90;;;2.70;99.90;;;;;;4969747;28;20446;-66
2021/01/06 11:18:23;;;;;;;12.40;8.40;;;2.70;99.90;;;;;;4968477;28;20459;-66
2021/01/06 11:21:12;;;;;;;9.73;8.73;;;2.70;99.90;;;;;;4969598;28;20446;-66
2021/01/06 11:23:48;;;;;;;14.60;10.63;;;2.70;99.90;;;;;;4969470;28;20552;-66
2021/01/06 11:26:32;;;;;;;17.23;10.67;;;2.70;99.90;;;;;;4969026;28;20482;-66
2021/01/06 11:29:16;;;;;;;14.93;10.43;;;2.70;99.90;;;;;;4968433;28;20995;-66
2021/01/06 11:32:03;;;;;;;11.13;8.60;;;2.80;99.90;;;;;;4990626;23;21011;-69
2021/01/06 11:34:33;;;;;;;12.67;10.10;;;2.80;99.90;;;;;;4969225;28;20456;-69
2021/01/06 11:37:03;;;;;;;12.30;10.90;;;2.70;99.90;;;;;;4969302;28;20814;-69
2021/01/06 11:39:46;;;;;;;11.70;9.17;;;2.60;99.90;;;;;;4968283;28;20593;-69
2021/01/06 11:42:20;;;;;;;9.13;8.23;;;2.60;99.90;;;;;;4950073;28;20425;-69
2021/01/06 11:45:22;;;;;;;11.13;9.57;;;2.80;99.90;;;;;;4949805;28;20427;-70
2021/01/06 11:47:55;;;;;;;10.63;8.53;;;2.80;99.90;;;;;;4937511;28;20870;-70
2021/01/06 11:50:24;;;;;;;10.80;8.33;;;2.80;99.90;;;;;;4949501;28;20495;-70
2021/01/06 11:52:50;;;;;;;11.27;8.83;;;2.90;99.90;;;;;;4949786;28;20417;-69
2021/01/06 11:55:21;;;;;;;8.90;8.00;;;2.90;99.90;;;;;;4949913;28;20969;-69
2021/01/06 11:57:50;;;;;;;9.40;8.20;;;2.90;99.90;;;;;;4949140;28;20792;-69
2021/01/06 12:00:40;;;;;;;14.40;8.90;;;2.90;99.90;;;;;;4949506;28;20448;-69
2021/01/06 12:03:06;;;;;;;10.77;9.60;;;2.80;99.90;;;;;;4949337;29;20409;-69
2021/01/06 12:05:51;;;;;;;10.70;8.57;;;2.80;99.90;;;;;;4949396;28;20496;-69
2021/01/06 12:08:18;;;;;;;9.43;8.20;;;2.80;99.90;;;;;;4948508;28;20186;-69
2021/01/06 12:10:56;;;;;;;12.63;9.10;;;2.80;99.90;;;;;;4949356;29;20445;-69
2021/01/06 12:13:48;;;;;;;11.50;7.53;;;2.80;99.90;;;;;;4949318;29;20424;-68
2021/01/06 12:16:33;;;;;;;10.40;8.10;;;2.80;99.90;;;;;;4949584;28;20416;-69
2021/01/06 12:19:04;;;;;;;10.00;9.00;;;2.70;99.90;;;;;;4948494;29;20460;-69
2021/01/06 12:21:33;;;;;;;8.50;7.43;;;2.80;99.90;;;;;;4949492;29;21119;-69
2021/01/06 12:24:15;;;;;;;11.03;9.77;;;2.90;99.90;;;;;;4949246;29;20494;-69
2021/01/06 12:26:53;;;;;;;9.93;8.93;;;3.00;99.90;;;;;;4949590;29;20420;-70
2021/01/06 12:29:20;;;;;;;13.47;10.03;;;3.10;99.90;;;;;;4948779;28;20515;-69
2021/01/06 12:31:58;;;;;;;9.90;8.90;;;3.10;99.90;;;;;;4949199;29;20464;-69
2021/01/06 12:34:53;;;;;;;10.73;9.60;;;3.20;99.90;;;;;;4949029;28;20429;-69
2021/01/06 12:37:29;;;;;;;9.80;8.33;;;3.10;99.90;;;;;;4949485;28;20519;-69
2021/01/06 12:39:57;;;;;;;10.77;8.87;;;3.10;99.90;;;;;;4951030;28;20471;-69
2021/01/06 12:42:39;;;;;;;9.10;7.70;;;3.10;99.90;;;;;;4952911;29;20766;-69
2021/01/06 12:45:14;;;;;;;8.77;7.83;;;3.10;99.90;;;;;;4953071;29;20436;-69
2021/01/06 12:47:44;;;;;;;7.83;6.90;;;3.20;99.90;;;;;;4952530;29;20870;-69
2021/01/06 12:50:23;;;;;;;8.13;7.00;;;3.20;99.90;;;;;;4952690;28;20443;-70
2021/01/06 12:52:57;;;;;;;10.57;7.90;;;3.20;99.90;;;;;;4952752;28;20921;-69
2021/01/06 12:55:44;;;;;;;11.00;8.27;;;3.30;99.90;;;;;;4952823;29;20447;-69
2021/01/06 12:58:21;;;;;;;10.60;7.30;;;3.20;99.90;;;;;;4951626;29;20440;-70
2021/01/06 13:00:59;;;;;;;8.43;7.47;;;3.20;99.90;;;;;;4952714;29;20817;-69
2021/01/06 13:03:43;;;;;;;7.27;6.60;;;3.20;99.90;;;;;;4952371;28;20436;-69
2021/01/06 13:06:30;;;;;;;10.23;9.03;;;3.20;99.90;;;;;;4952445;28;20883;-69
2021/01/06 13:09:29;;;;;;;8.73;7.00;;;3.20;99.90;;;;;;4951562;28;20416;-69
2021/01/06 13:12:17;;;;;;;8.07;7.17;;;3.20;99.90;;;;;;4952847;28;20408;-69
2021/01/06 13:14:48;;;;;;;8.27;6.70;;;3.20;99.90;;;;;;4951111;29;20425;-69
2021/01/06 13:17:14;;;;;;;9.67;7.10;;;3.20;99.90;;;;;;4952544;28;20953;-69
2021/01/06 13:20:04;;;;;;;10.00;8.50;;;3.30;99.90;;;;;;4951509;28;20460;-70
2021/01/06 13:22:41;;;;;;;7.90;6.73;;;3.30;99.90;;;;;;4952707;28;20634;-69